createdAt,value
2023-02-11T00:01:32.062Z,39.47
2023-02-11T00:04:00.062Z,16.75
2023-02-11T00:06:28.195Z,18.17
2023-02-11T00:08:56.038Z,17.13
2023-02-11T00:11:25.503Z,18.92
2023-02-11T00:13:52.940Z,18.17
2023-02-11T00:16:21.383Z,15.85
2023-02-11T00:18:48.926Z,16.45
2023-02-11T00:21:20.046Z,19.60
2023-02-11T00:23:47.803Z,17.97
2023-02-11T00:26:16.395Z,21.60
2023-02-11T00:28:44.006Z,22.02
2023-02-11T00:31:11.866Z,20.42
2023-02-11T00:33:39.335Z,21.67
2023-02-11T00:36:14.631Z,19.67
2023-02-11T00:38:43.852Z,22.58
2023-02-11T00:41:11.512Z,21.65
2023-02-11T00:43:38.819Z,22.38
2023-02-11T00:46:06.565Z,21.85
2023-02-11T00:48:34.358Z,20.23
2023-02-11T00:51:01.950Z,19.27
2023-02-11T00:53:29.268Z,19.35
2023-02-11T00:55:56.651Z,17.10
2023-02-11T00:58:26.347Z,21.35
2023-02-11T01:00:54.922Z,19.20
2023-02-11T01:03:22.455Z,20.92
2023-02-11T01:05:50.219Z,17.50
2023-02-11T01:08:17.833Z,19.40
2023-02-11T01:10:45.617Z,28.48
2023-02-11T01:13:12.992Z,23.08
2023-02-11T01:15:40.424Z,17.77
2023-02-11T01:18:07.948Z,19.42
2023-02-11T01:20:35.370Z,18.25
2023-02-11T01:23:02.762Z,17.48
2023-02-11T01:25:30.126Z,17.48
2023-02-11T01:27:57.477Z,18.40
2023-02-11T01:30:25.061Z,17.77
2023-02-11T01:32:52.360Z,19.15
2023-02-11T01:35:19.745Z,20.05
2023-02-11T01:37:47.095Z,22.48
2023-02-11T01:40:15.945Z,17.90
2023-02-11T01:42:43.922Z,20.00
2023-02-11T01:45:30.215Z,17.92
2023-02-11T01:47:57.767Z,17.17
2023-02-11T01:50:25.157Z,25.58
2023-02-11T01:52:52.536Z,21.77
2023-02-11T01:55:38.544Z,21.98
2023-02-11T01:58:06.020Z,18.45
2023-02-11T02:00:37.898Z,20.50
2023-02-11T02:05:35.630Z,23.70
2023-02-11T02:08:15.806Z,22.15
2023-02-11T02:10:44.567Z,19.67
2023-02-11T02:13:12.011Z,21.92
2023-02-11T02:15:40.242Z,18.33
2023-02-11T02:18:26.361Z,18.75
2023-02-11T02:21:09.044Z,20.25
2023-02-11T02:23:41.515Z,19.02
2023-02-11T02:26:14.843Z,18.45
2023-02-11T02:28:56.443Z,17.70
2023-02-11T02:31:34.639Z,18.92
2023-02-11T02:34:04.392Z,18.98
2023-02-11T02:36:35.381Z,18.77
2023-02-11T02:39:10.829Z,21.60
2023-02-11T02:41:39.462Z,20.67
2023-02-11T02:44:08.010Z,21.33
2023-02-11T02:46:35.886Z,19.55
2023-02-11T02:49:03.824Z,21.90
2023-02-11T02:51:46.540Z,20.60
2023-02-11T02:54:13.927Z,18.83
2023-02-11T02:56:45.358Z,19.55
2023-02-11T02:59:12.687Z,21.38
2023-02-11T03:01:43.020Z,25.80
2023-02-11T03:04:18.537Z,21.73
2023-02-11T03:06:48.848Z,21.45
2023-02-11T03:09:21.071Z,19.23
2023-02-11T03:11:48.882Z,20.38
2023-02-11T03:14:17.808Z,19.40
2023-02-11T03:19:41.899Z,22.50
2023-02-11T03:22:12.426Z,20.48
2023-02-11T03:24:40.688Z,19.65
2023-02-11T03:27:13.044Z,19.23
2023-02-11T03:29:40.339Z,22.08
2023-02-11T03:32:16.048Z,20.40
2023-02-11T03:34:49.651Z,19.25
2023-02-11T03:37:20.533Z,19.58
2023-02-11T03:40:14.029Z,22.23
2023-02-11T03:42:46.740Z,20.48
2023-02-11T03:45:16.249Z,29.15
2023-02-11T03:47:46.487Z,24.35
2023-02-11T03:50:15.363Z,25.98
2023-02-11T03:52:43.111Z,21.50
2023-02-11T03:55:13.108Z,22.35
2023-02-11T03:57:40.502Z,26.38
2023-02-11T04:00:08.438Z,20.95
2023-02-11T04:02:45.040Z,20.63
2023-02-11T04:05:13.946Z,21.60
2023-02-11T04:07:41.230Z,24.75
2023-02-11T04:10:09.252Z,22.30
2023-02-11T04:12:36.569Z,24.33
2023-02-11T04:15:04.053Z,22.45
2023-02-11T04:17:31.489Z,29.00
2023-02-11T04:19:58.867Z,21.70
2023-02-11T04:22:26.224Z,43.42
2023-02-11T04:24:53.614Z,20.17
2023-02-11T04:27:20.927Z,21.85
2023-02-11T04:29:48.343Z,20.42
2023-02-11T04:32:15.956Z,22.15
2023-02-11T04:34:43.218Z,22.75
2023-02-11T04:37:10.543Z,20.33
2023-02-11T04:39:37.896Z,25.35
2023-02-11T04:42:05.339Z,20.48
2023-02-11T04:44:32.745Z,26.52
2023-02-11T04:47:00.173Z,18.15
2023-02-11T04:49:27.518Z,20.95
2023-02-11T04:51:55.022Z,21.08
2023-02-11T04:54:22.455Z,19.85
2023-02-11T04:56:50.984Z,24.90
2023-02-11T04:59:18.336Z,23.30
2023-02-11T05:01:45.710Z,19.77
2023-02-11T05:04:13.107Z,19.35
2023-02-11T05:06:40.472Z,17.02
2023-02-11T05:09:07.951Z,19.23
2023-02-11T05:11:36.642Z,21.98
2023-02-11T05:14:03.999Z,21.13
2023-02-11T05:16:31.432Z,18.63
2023-02-11T05:18:58.812Z,20.02
2023-02-11T05:21:26.449Z,18.40
2023-02-11T05:23:53.744Z,21.05
2023-02-11T05:26:21.127Z,19.42
2023-02-11T05:28:48.479Z,25.50
2023-02-11T05:31:16.808Z,19.13
2023-02-11T05:33:44.293Z,25.92
2023-02-11T05:36:13.287Z,20.48
2023-02-11T05:38:42.578Z,21.88
2023-02-11T05:41:10.390Z,19.48
2023-02-11T05:43:37.770Z,19.35
2023-02-11T05:46:05.447Z,21.10
2023-02-11T05:48:32.857Z,21.20
2023-02-11T05:51:00.188Z,19.38
2023-02-11T05:53:27.999Z,19.00
2023-02-11T05:55:55.428Z,21.48
2023-02-11T05:58:22.764Z,20.00
2023-02-11T06:00:50.091Z,18.77
2023-02-11T06:03:17.461Z,24.27
2023-02-11T06:05:48.350Z,20.17
2023-02-11T06:08:28.160Z,18.67
2023-02-11T06:10:55.870Z,19.02
2023-02-11T06:13:24.803Z,18.83
2023-02-11T06:16:05.141Z,19.05
2023-02-11T06:18:35.568Z,20.15
2023-02-11T06:21:03.372Z,18.15
2023-02-11T06:23:30.683Z,18.65
2023-02-11T06:26:02.087Z,20.88
2023-02-11T06:28:31.425Z,20.48
2023-02-11T06:31:00.316Z,22.23
2023-02-11T06:33:29.045Z,19.85
2023-02-11T06:35:56.383Z,21.70
2023-02-11T06:38:23.691Z,20.92
2023-02-11T06:40:51.212Z,23.92
2023-02-11T06:43:18.736Z,21.55
2023-02-11T06:45:46.038Z,21.25
2023-02-11T06:48:13.432Z,27.50
2023-02-11T06:50:40.891Z,20.20
2023-02-11T06:53:08.182Z,21.65
2023-02-11T06:55:36.015Z,21.15
2023-02-11T06:58:03.437Z,23.55
2023-02-11T07:00:31.271Z,21.67
2023-02-11T07:02:58.627Z,22.33
2023-02-11T07:05:26.051Z,21.45
2023-02-11T07:07:53.384Z,20.27
2023-02-11T07:10:20.688Z,21.90
2023-02-11T07:12:48.011Z,20.48
2023-02-11T07:15:15.380Z,21.90
2023-02-11T07:17:42.736Z,25.27
2023-02-11T07:20:12.425Z,23.90
2023-02-11T07:22:39.855Z,19.10
2023-02-11T07:25:07.315Z,22.08
2023-02-11T07:27:34.930Z,24.80
2023-02-11T07:30:03.420Z,21.67
2023-02-11T07:32:32.224Z,22.27
2023-02-11T07:34:59.641Z,22.42
2023-02-11T07:37:27.019Z,19.30
2023-02-11T07:39:54.333Z,18.73
2023-02-11T07:42:21.683Z,23.73
2023-02-11T07:44:50.519Z,23.13
2023-02-11T07:47:18.314Z,23.60
2023-02-11T07:49:46.143Z,22.02
2023-02-11T07:52:13.493Z,23.27
2023-02-11T07:54:40.924Z,21.02
2023-02-11T07:57:08.499Z,22.63
2023-02-11T07:59:35.893Z,22.48
2023-02-11T08:02:03.268Z,23.15
2023-02-11T08:04:30.580Z,25.75
2023-02-11T08:06:59.307Z,23.33
2023-02-11T08:09:26.756Z,22.50
2023-02-11T08:11:54.100Z,24.05
2023-02-11T08:14:21.439Z,23.40
2023-02-11T08:16:48.902Z,24.48
2023-02-11T08:19:17.333Z,24.75
2023-02-11T08:21:44.871Z,28.73
2023-02-11T08:24:12.883Z,24.13
2023-02-11T08:26:40.467Z,25.92
2023-02-11T08:29:09.876Z,22.80
2023-02-11T08:31:39.672Z,23.63
2023-02-11T08:34:07.410Z,25.67
2023-02-11T08:36:36.110Z,29.75
2023-02-11T08:39:18.227Z,23.80
2023-02-11T08:41:48.755Z,24.65
2023-02-11T08:44:16.366Z,24.92
2023-02-11T08:46:43.710Z,24.77
2023-02-11T08:49:11.032Z,25.25
2023-02-11T08:51:38.528Z,30.25
2023-02-11T08:54:09.399Z,25.95
2023-02-11T08:56:37.615Z,24.60
2023-02-11T08:59:05.185Z,23.88
2023-02-11T09:01:33.016Z,26.52
2023-02-11T09:04:01.128Z,22.42
2023-02-11T09:06:28.713Z,23.10
2023-02-11T09:08:56.884Z,23.45
2023-02-11T09:11:32.326Z,22.38
2023-02-11T09:13:59.950Z,27.23
2023-02-11T09:16:28.948Z,26.23
2023-02-11T09:19:00.315Z,26.23
2023-02-11T09:21:28.289Z,24.42
2023-02-11T09:23:55.657Z,24.13
2023-02-11T09:26:27.661Z,25.88
2023-02-11T09:31:23.538Z,29.23
2023-02-11T09:33:52.957Z,25.70
2023-02-11T09:36:21.403Z,27.35
2023-02-11T09:38:49.186Z,26.17
2023-02-11T09:41:27.992Z,24.35
2023-02-11T09:44:00.855Z,24.45
2023-02-11T09:46:30.920Z,26.92
2023-02-11T09:48:58.716Z,25.88
2023-02-11T09:51:46.360Z,33.42
2023-02-11T09:54:33.944Z,27.48
2023-02-11T09:57:01.309Z,25.10
2023-02-11T09:59:28.663Z,23.63
2023-02-11T10:01:56.411Z,26.08
2023-02-11T10:04:45.733Z,27.15
2023-02-11T10:07:22.402Z,27.88
2023-02-11T10:10:08.698Z,31.27
2023-02-11T10:12:36.068Z,25.35
2023-02-11T10:15:15.472Z,28.17
2023-02-11T10:17:46.561Z,24.23
2023-02-11T10:20:24.948Z,27.67
2023-02-11T10:23:00.979Z,27.42
2023-02-11T10:25:28.368Z,34.05
2023-02-11T10:27:57.644Z,26.30
2023-02-11T10:30:39.073Z,27.60
2023-02-11T10:33:12.523Z,27.80
2023-02-11T10:35:40.235Z,26.38
2023-02-11T10:38:09.369Z,25.00
2023-02-11T10:40:36.696Z,29.58
2023-02-11T10:43:10.860Z,25.15
2023-02-11T10:45:46.975Z,27.60
2023-02-11T10:48:33.286Z,24.95
2023-02-11T10:51:09.622Z,25.20
2023-02-11T10:53:37.099Z,26.52
2023-02-11T10:56:04.980Z,24.50
2023-02-11T10:58:36.573Z,29.02
2023-02-11T11:01:12.895Z,27.00
2023-02-11T11:03:47.847Z,26.00
2023-02-11T11:06:15.322Z,26.13
2023-02-11T11:08:44.461Z,28.08
2023-02-11T11:11:18.954Z,26.90
2023-02-11T11:14:03.272Z,26.75
2023-02-11T11:16:30.639Z,25.80
2023-02-11T11:19:07.149Z,25.77
2023-02-11T11:21:42.486Z,25.77
2023-02-11T11:24:31.401Z,24.52
2023-02-11T11:27:03.166Z,27.60
2023-02-11T11:29:35.590Z,24.90
2023-02-11T11:32:05.514Z,27.23
2023-02-11T11:34:34.436Z,25.27
2023-02-11T11:37:10.428Z,23.08
2023-02-11T11:39:37.854Z,24.15
2023-02-11T11:42:06.292Z,23.83
2023-02-11T11:44:37.658Z,21.67
2023-02-11T11:47:16.465Z,25.40
2023-02-11T11:49:54.644Z,24.67
2023-02-11T11:52:22.026Z,23.33
2023-02-11T11:54:53.766Z,23.50
2023-02-11T11:57:25.179Z,25.45
2023-02-11T11:59:52.602Z,23.42
2023-02-11T12:02:46.521Z,26.95
2023-02-11T12:05:26.754Z,24.05
2023-02-11T12:08:16.901Z,24.38
2023-02-11T12:11:05.979Z,24.65
2023-02-11T12:13:36.367Z,22.98
2023-02-11T12:16:14.196Z,24.58
2023-02-11T12:18:44.931Z,23.05
2023-02-11T12:24:07.318Z,21.70
2023-02-11T12:26:40.819Z,24.10
2023-02-11T12:29:08.140Z,23.20
2023-02-11T12:31:38.639Z,21.92
2023-02-11T12:34:15.421Z,25.75
2023-02-11T12:36:43.135Z,22.75
2023-02-11T12:39:10.608Z,22.65
2023-02-11T12:42:10.939Z,24.23
2023-02-11T12:44:51.835Z,22.30
2023-02-11T12:47:31.868Z,23.45
2023-02-11T12:50:18.610Z,21.65
2023-02-11T12:52:51.788Z,23.77
2023-02-11T12:55:27.445Z,23.45
2023-02-11T12:57:57.282Z,23.52
2023-02-11T13:00:26.054Z,21.42
2023-02-11T13:02:56.493Z,21.75
2023-02-11T13:05:26.104Z,22.42
2023-02-11T13:07:55.871Z,23.70
2023-02-11T13:10:23.127Z,21.13
2023-02-11T13:13:09.647Z,21.45
2023-02-11T13:15:37.235Z,20.52
2023-02-11T13:18:19.260Z,22.10
2023-02-11T13:23:23.130Z,19.85
2023-02-11T13:25:53.746Z,20.27
2023-02-11T13:28:27.205Z,20.67
2023-02-11T13:31:02.616Z,22.13
2023-02-11T13:33:43.504Z,22.05
2023-02-11T13:36:12.488Z,21.67
2023-02-11T13:38:40.063Z,21.48
2023-02-11T13:41:15.595Z,22.88
2023-02-11T13:43:43.130Z,20.40
2023-02-11T13:46:12.531Z,20.67
2023-02-11T13:48:46.241Z,20.65
2023-02-11T13:51:14.948Z,21.85
2023-02-11T13:53:51.018Z,20.88
2023-02-11T13:56:38.187Z,19.55
2023-02-11T13:59:07.094Z,21.95
2023-02-11T14:01:41.712Z,19.52
2023-02-11T14:04:47.987Z,22.98
2023-02-11T14:07:47.209Z,21.30
2023-02-11T14:10:33.564Z,20.65
2023-02-11T14:13:20.798Z,21.70
2023-02-11T14:15:48.114Z,23.05
2023-02-11T14:18:37.250Z,20.13
2023-02-11T14:21:14.580Z,21.20
2023-02-11T14:23:42.382Z,22.02
2023-02-11T14:26:30.073Z,21.05
2023-02-11T14:29:16.349Z,22.25
2023-02-11T14:32:06.788Z,21.67
2023-02-11T14:34:58.145Z,23.33
2023-02-11T14:37:37.730Z,22.08
2023-02-11T14:40:05.087Z,20.73
2023-02-11T14:42:32.472Z,22.13
2023-02-11T14:45:04.912Z,20.77
2023-02-11T14:47:41.069Z,21.63
2023-02-11T14:50:15.218Z,20.98
2023-02-11T14:52:43.505Z,21.98
2023-02-11T14:55:19.992Z,21.85
2023-02-11T14:57:49.567Z,22.52
2023-02-11T15:00:18.522Z,22.00
2023-02-11T15:02:46.146Z,24.48
2023-02-11T15:05:19.049Z,23.75
2023-02-11T15:07:51.036Z,23.02
2023-02-11T15:10:31.129Z,21.85
2023-02-11T15:12:59.047Z,21.60
2023-02-11T15:15:26.937Z,21.75
2023-02-11T15:20:50.572Z,21.20
2023-02-11T15:23:27.414Z,21.65
2023-02-11T15:25:57.728Z,22.15
2023-02-11T15:28:49.193Z,20.70
2023-02-11T15:31:18.256Z,21.25
2023-02-11T15:33:46.111Z,18.88
2023-02-11T15:36:14.199Z,18.63
2023-02-11T15:38:41.656Z,19.38
2023-02-11T15:41:09.644Z,20.33
2023-02-11T15:43:51.093Z,18.13
2023-02-11T15:46:20.932Z,19.50
2023-02-11T15:48:50.030Z,20.15
2023-02-11T15:51:22.037Z,19.50
2023-02-11T15:53:53.167Z,22.48
2023-02-11T15:56:25.083Z,22.17
2023-02-11T15:58:53.463Z,22.88
2023-02-11T16:01:30.421Z,25.67
2023-02-11T16:03:59.316Z,21.17
2023-02-11T16:06:29.447Z,19.45
2023-02-11T16:09:01.294Z,19.42
2023-02-11T16:11:31.939Z,19.50
2023-02-11T16:14:00.683Z,20.48
2023-02-11T16:16:29.403Z,18.52
2023-02-11T16:19:04.794Z,20.08
2023-02-11T16:21:40.056Z,19.77
2023-02-11T16:24:08.730Z,21.73
2023-02-11T16:26:40.904Z,22.75
2023-02-11T16:29:16.429Z,20.60
2023-02-11T16:31:45.502Z,20.42
2023-02-11T16:34:23.215Z,22.15
2023-02-11T16:36:51.619Z,20.25
2023-02-11T16:39:22.429Z,21.63
2023-02-11T16:41:53.322Z,23.42
2023-02-11T16:44:20.872Z,23.80
2023-02-11T16:46:48.518Z,23.23
2023-02-11T16:49:19.141Z,20.95
2023-02-11T16:51:47.757Z,21.23
2023-02-11T16:54:16.299Z,22.48
2023-02-11T16:56:44.225Z,23.38
2023-02-11T16:59:11.988Z,22.13
2023-02-11T17:01:39.980Z,23.20
2023-02-11T17:04:08.187Z,23.30
2023-02-11T17:06:35.786Z,22.30
2023-02-11T17:09:03.395Z,21.85
2023-02-11T17:11:30.844Z,25.40
2023-02-11T17:13:58.204Z,24.20
2023-02-11T17:16:27.696Z,23.83
2023-02-11T17:18:55.117Z,25.17
2023-02-11T17:21:27.562Z,23.02
2023-02-11T17:23:56.182Z,24.55
2023-02-11T17:26:23.536Z,24.83
2023-02-11T17:28:51.183Z,30.13
2023-02-11T17:31:18.843Z,34.78
2023-02-11T17:33:47.408Z,47.17
2023-02-11T17:36:14.851Z,59.55
2023-02-11T17:38:42.201Z,47.83
2023-02-11T17:41:09.593Z,43.38
2023-02-11T17:43:37.291Z,40.95
2023-02-11T17:46:08.604Z,31.50
2023-02-11T17:48:38.484Z,32.05
2023-02-11T17:51:10.663Z,31.38
2023-02-11T17:53:38.123Z,28.17
2023-02-11T17:56:07.214Z,26.50
2023-02-11T17:58:34.723Z,25.85
2023-02-11T18:01:02.152Z,23.20
2023-02-11T18:03:29.812Z,25.35
2023-02-11T18:06:04.439Z,26.00
2023-02-11T18:08:32.766Z,24.50
2023-02-11T18:11:00.830Z,23.27
2023-02-11T18:13:28.971Z,23.92
2023-02-11T18:15:56.448Z,26.13
2023-02-11T18:18:24.058Z,23.75
2023-02-11T18:20:58.300Z,24.00
2023-02-11T18:23:25.911Z,26.20
2023-02-11T18:25:53.519Z,31.85
2023-02-11T18:28:21.116Z,36.55
2023-02-11T18:30:57.534Z,34.22
2023-02-11T18:33:29.434Z,32.83
2023-02-11T18:35:59.757Z,30.55
2023-02-11T18:38:27.298Z,28.75
2023-02-11T18:40:57.767Z,31.35
2023-02-11T18:43:25.103Z,29.92
2023-02-11T18:45:52.732Z,32.30
2023-02-11T18:48:20.496Z,33.22
2023-02-11T18:50:47.890Z,32.38
2023-02-11T18:53:18.400Z,31.15
2023-02-11T18:55:46.472Z,29.38
2023-02-11T18:58:15.245Z,30.30
2023-02-11T19:00:44.086Z,28.85
2023-02-11T19:03:11.539Z,28.73
2023-02-11T19:05:43.003Z,27.48
2023-02-11T19:08:10.594Z,28.17
2023-02-11T19:10:44.694Z,28.63
2023-02-11T19:13:12.463Z,27.70
2023-02-11T19:15:43.416Z,28.92
2023-02-11T19:18:12.674Z,29.15
2023-02-11T19:20:43.710Z,27.75
2023-02-11T19:23:13.024Z,27.17
2023-02-11T19:25:45.576Z,27.13
2023-02-11T19:28:13.487Z,25.17
2023-02-11T19:30:41.086Z,24.50
2023-02-11T19:33:10.331Z,25.38
2023-02-11T19:35:37.832Z,25.70
2023-02-11T19:38:05.770Z,25.05
2023-02-11T19:40:33.359Z,23.73
2023-02-11T19:43:00.757Z,24.70
2023-02-11T19:45:28.333Z,24.65
2023-02-11T19:47:57.098Z,22.35
2023-02-11T19:50:24.609Z,21.83
2023-02-11T19:52:52.029Z,22.73
2023-02-11T19:55:19.495Z,24.60
2023-02-11T19:57:46.966Z,20.75
2023-02-11T20:00:15.023Z,23.08
2023-02-11T20:02:42.391Z,22.88
2023-02-11T20:05:10.023Z,22.73
2023-02-11T20:07:37.726Z,21.80
2023-02-11T20:10:05.626Z,24.45
2023-02-11T20:12:33.148Z,24.40
2023-02-11T20:15:00.629Z,23.50
2023-02-11T20:17:28.454Z,23.20
2023-02-11T20:19:55.987Z,21.05
2023-02-11T20:22:24.250Z,22.58
2023-02-11T20:24:51.647Z,20.77
2023-02-11T20:27:20.143Z,21.10
2023-02-11T20:29:47.626Z,22.17
2023-02-11T20:32:15.354Z,23.45
2023-02-11T20:34:42.792Z,24.20
2023-02-11T20:37:10.490Z,23.45
2023-02-11T20:39:40.917Z,23.35
2023-02-11T20:42:12.210Z,23.40
2023-02-11T20:44:39.652Z,20.90
2023-02-11T20:47:07.091Z,21.52
2023-02-11T20:49:34.610Z,22.08
2023-02-11T20:52:04.285Z,23.45
2023-02-11T20:54:32.064Z,26.50
2023-02-11T20:56:59.752Z,25.27
2023-02-11T20:59:27.476Z,25.38
2023-02-11T21:01:56.234Z,25.88
2023-02-11T21:04:25.366Z,24.98
2023-02-11T21:06:54.465Z,24.35
2023-02-11T21:09:23.107Z,25.77
2023-02-11T21:11:54.384Z,26.98
2023-02-11T21:14:22.322Z,28.98
2023-02-11T21:16:53.203Z,28.58
2023-02-11T21:19:21.216Z,27.42
2023-02-11T21:21:48.721Z,27.23
2023-02-11T21:24:16.226Z,28.80
2023-02-11T21:26:43.575Z,28.10
2023-02-11T21:29:11.970Z,28.08
2023-02-11T21:31:39.755Z,26.08
2023-02-11T21:34:07.389Z,26.35
2023-02-11T21:36:34.837Z,25.45
2023-02-11T21:39:03.807Z,25.55
2023-02-11T21:41:31.278Z,24.42
2023-02-11T21:43:58.728Z,25.00
2023-02-11T21:46:28.201Z,24.85
2023-02-11T21:48:56.266Z,24.73
2023-02-11T21:51:25.431Z,24.55
2023-02-11T21:53:54.116Z,24.58
2023-02-11T21:56:21.507Z,24.95
2023-02-11T21:58:52.013Z,25.23
2023-02-11T22:01:20.508Z,24.52
2023-02-11T22:03:48.042Z,24.13
2023-02-11T22:06:17.493Z,25.02
2023-02-11T22:08:45.223Z,23.35
2023-02-11T22:11:13.215Z,25.35
2023-02-11T22:13:40.808Z,24.10
2023-02-11T22:16:10.147Z,24.08
2023-02-11T22:18:37.563Z,22.98
2023-02-11T22:21:06.461Z,22.80
2023-02-11T22:23:34.656Z,23.63
2023-02-11T22:26:07.458Z,25.70
2023-02-11T22:28:37.222Z,24.65
2023-02-11T22:31:04.655Z,24.80
2023-02-11T22:33:34.283Z,27.13
2023-02-11T22:36:05.950Z,25.98
2023-02-11T22:38:33.739Z,26.60
2023-02-11T22:41:05.937Z,25.23
2023-02-11T22:43:33.371Z,24.45
2023-02-11T22:46:01.697Z,23.95
2023-02-11T22:48:29.233Z,24.83
2023-02-11T22:50:56.745Z,24.70
2023-02-11T22:53:25.528Z,23.92
2023-02-11T22:55:53.146Z,25.20
2023-02-11T22:58:20.611Z,25.73
2023-02-11T23:00:47.964Z,25.50
2023-02-11T23:03:17.834Z,22.85
2023-02-11T23:05:45.142Z,20.27
2023-02-11T23:08:12.759Z,22.50
2023-02-11T23:10:40.186Z,22.45
2023-02-11T23:13:10.267Z,23.38
2023-02-11T23:15:41.698Z,22.50
2023-02-11T23:18:09.771Z,23.13
2023-02-11T23:20:38.065Z,23.48
2023-02-11T23:23:05.972Z,22.88
2023-02-11T23:25:33.775Z,22.63
2023-02-11T23:28:02.003Z,22.45
2023-02-11T23:30:29.413Z,22.52
2023-02-11T23:32:56.801Z,23.45
2023-02-11T23:35:24.860Z,23.08
2023-02-11T23:37:53.076Z,21.95
2023-02-11T23:40:21.753Z,22.55
2023-02-11T23:42:49.162Z,20.95
2023-02-11T23:45:16.883Z,22.10
2023-02-11T23:48:09.559Z,23.15
2023-02-11T23:50:39.604Z,21.77
2023-02-11T23:53:07.006Z,21.45
2023-02-11T23:55:39.901Z,22.50
2023-02-11T23:58:07.419Z,21.10
